createdAt,value
2023-05-12T00:03:25.382Z,14.3
2023-05-12T00:18:35.688Z,14.3
2023-05-12T00:33:45.144Z,14.3
2023-05-12T00:48:54.815Z,14.3
2023-05-12T01:04:04.244Z,14.3
2023-05-12T01:19:14.282Z,14.3
2023-05-12T01:34:24.609Z,14.3
2023-05-12T01:49:33.934Z,14.3
2023-05-12T02:04:43.828Z,14.2
2023-05-12T02:19:53.716Z,14.1
2023-05-12T02:35:03.522Z,14.1
2023-05-12T02:50:13.598Z,14
2023-05-12T03:05:23.558Z,14
2023-05-12T03:20:33.351Z,14
2023-05-12T03:35:43.355Z,14
2023-05-12T03:50:53.020Z,14
2023-05-12T04:06:03.145Z,13.9
2023-05-12T04:21:12.392Z,13.9
2023-05-12T04:36:21.945Z,14
2023-05-12T04:51:31.656Z,14
2023-05-12T05:06:41.017Z,14.1
2023-05-12T05:21:50.673Z,14.2
2023-05-12T05:37:00.682Z,14.3
2023-05-12T05:52:10.394Z,14.4
2023-05-12T06:07:22.078Z,14.6
2023-05-12T06:22:31.844Z,14.8
2023-05-12T06:37:41.798Z,15
2023-05-12T06:52:51.438Z,15.1
2023-05-12T07:08:01.915Z,15.2
2023-05-12T07:23:12.010Z,15.3
2023-05-12T07:38:21.951Z,15.5
2023-05-12T07:53:32.277Z,15.7
2023-05-12T08:08:42.345Z,16
2023-05-12T08:23:52.597Z,16.3
2023-05-12T08:39:02.876Z,16.6
2023-05-12T08:54:12.989Z,16.8
2023-05-12T09:09:23.012Z,17.1
2023-05-12T09:24:33.358Z,17.3
2023-05-12T09:39:43.494Z,17.5
2023-05-12T09:54:54.031Z,17.7
2023-05-12T10:10:04.050Z,18
2023-05-12T10:25:14.472Z,18.4
2023-05-12T10:40:24.592Z,18.7
2023-05-12T10:55:35.685Z,19
2023-05-12T11:10:47.175Z,19.3
2023-05-12T11:25:57.889Z,19.7
2023-05-12T11:41:08.665Z,20.1
2023-05-12T11:56:19.119Z,20.5
2023-05-12T12:11:29.561Z,21.3
2023-05-12T12:26:39.806Z,21.6
2023-05-12T12:41:49.131Z,20.8
2023-05-12T12:56:59.357Z,21.4
2023-05-12T13:12:09.473Z,21.2
2023-05-12T13:27:19.962Z,22.8
2023-05-12T13:42:31.903Z,24.5
2023-05-12T13:57:42.929Z,25.5
2023-05-12T14:12:54.061Z,26.4
2023-05-12T14:28:06.099Z,27.3
2023-05-12T14:43:15.457Z,25.3
2023-05-12T14:58:26.457Z,26.7
2023-05-12T15:13:36.873Z,27.5
2023-05-12T15:28:48.075Z,27.6
2023-05-12T15:43:57.510Z,27.3
2023-05-12T15:59:05.146Z,24.8
2023-05-12T16:14:13.901Z,23.8
2023-05-12T16:29:23.944Z,24.7
2023-05-12T16:44:34.036Z,24.5
2023-05-12T16:59:43.529Z,23.5
2023-05-12T17:14:59.622Z,22.7
2023-05-12T17:30:19.935Z,22.2
2023-05-12T17:45:30.421Z,21.8
2023-05-12T18:00:40.464Z,21.4
2023-05-12T18:15:50.986Z,21
2023-05-12T18:31:06.106Z,20.7
2023-05-12T18:46:25.832Z,20.3
2023-05-12T19:01:35.718Z,20
2023-05-12T19:16:45.788Z,19.6
2023-05-12T19:31:56.118Z,19.3
2023-05-12T19:47:06.671Z,19.1
2023-05-12T20:02:16.032Z,18.9
2023-05-12T20:17:25.771Z,18.6
2023-05-12T20:32:36.026Z,18.4
2023-05-12T20:47:45.781Z,18.2
2023-05-12T21:02:55.687Z,18
2023-05-12T21:18:06.305Z,17.8
2023-05-12T21:33:16.124Z,17.6
2023-05-12T21:48:25.712Z,17.4
2023-05-12T22:03:35.187Z,17.3
2023-05-12T22:18:44.772Z,17.1
2023-05-12T22:33:54.938Z,16.9
2023-05-12T22:49:05.076Z,16.8
2023-05-12T23:04:14.430Z,16.5
2023-05-12T23:19:24.463Z,16.4
2023-05-12T23:34:33.633Z,16.2
2023-05-12T23:49:42.759Z,16
